createdAt,value
2023-03-20T00:00:33.121Z,100017.63
2023-03-20T00:01:18.208Z,100013.50
2023-03-20T00:02:00.326Z,100023.72
2023-03-20T00:02:42.243Z,99999.28
2023-03-20T00:03:24.171Z,99995.00
2023-03-20T00:04:05.928Z,100009.03
2023-03-20T00:04:47.748Z,100018.09
2023-03-20T00:05:30.514Z,100010.69
2023-03-20T00:06:32.270Z,100013.66
2023-03-20T00:07:14.023Z,100012.00
2023-03-20T00:07:57.450Z,100009.34
2023-03-20T00:08:39.674Z,100020.56
2023-03-20T00:09:21.305Z,100020.56
2023-03-20T00:10:03.052Z,100015.59
2023-03-20T00:10:46.990Z,100031.63
2023-03-20T00:11:33.414Z,100028.00
2023-03-20T00:12:22.087Z,100031.31
2023-03-20T00:13:05.748Z,100028.66
2023-03-20T00:13:47.548Z,100036.59
2023-03-20T00:14:29.400Z,100023.72
2023-03-20T00:15:23.605Z,100027.19
2023-03-20T00:16:05.862Z,100029.94
2023-03-20T00:16:49.203Z,100019.22
2023-03-20T00:17:30.775Z,100027.66
2023-03-20T00:18:23.509Z,100029.63
2023-03-20T00:19:08.532Z,100028.13
2023-03-20T00:19:50.351Z,100037.03
2023-03-20T00:20:35.026Z,100011.28
2023-03-20T00:21:19.941Z,100027.16
2023-03-20T00:22:01.831Z,100028.97
2023-03-20T00:22:43.551Z,100025.34
2023-03-20T00:23:25.783Z,100028.66
2023-03-20T00:24:07.977Z,100035.56
2023-03-20T00:24:49.712Z,100008.81
2023-03-20T00:25:32.321Z,100027.66
2023-03-20T00:26:18.209Z,100029.28
2023-03-20T00:26:59.843Z,100008.63
2023-03-20T00:27:43.599Z,100015.41
2023-03-20T00:28:40.580Z,100033.63
2023-03-20T00:29:27.910Z,100032.97
2023-03-20T00:30:22.861Z,100035.94
2023-03-20T00:31:24.703Z,100032.78
2023-03-20T00:32:13.106Z,99997.66
2023-03-20T00:32:56.834Z,100040.06
2023-03-20T00:33:38.422Z,100039.25
2023-03-20T00:34:23.638Z,100020.09
2023-03-20T00:35:18.651Z,100035.63
2023-03-20T00:36:02.659Z,100038.44
2023-03-20T00:36:44.287Z,100035.78
2023-03-20T00:37:28.049Z,100040.91
2023-03-20T00:38:12.321Z,100029.66
2023-03-20T00:38:54.681Z,100026.53
2023-03-20T00:39:36.729Z,100005.25
2023-03-20T00:40:19.354Z,100040.56
2023-03-20T00:41:01.079Z,100000.47
2023-03-20T00:41:52.748Z,100032.97
2023-03-20T00:42:36.999Z,100033.81
2023-03-20T00:43:18.748Z,100030.34
2023-03-20T00:44:27.931Z,100027.34
2023-03-20T00:45:17.902Z,100018.13
2023-03-20T00:45:59.919Z,99998.63
2023-03-20T00:46:41.746Z,100021.91
2023-03-20T00:47:25.300Z,100010.03
2023-03-20T00:48:13.078Z,100014.78
2023-03-20T00:48:55.939Z,100041.06
2023-03-20T00:49:38.325Z,100025.69
2023-03-20T00:50:27.380Z,100028.63
2023-03-20T00:51:09.783Z,100028.97
2023-03-20T00:51:51.448Z,100025.31
2023-03-20T00:52:33.091Z,100025.00
2023-03-20T00:53:14.709Z,99992.50
2023-03-20T00:53:56.669Z,100014.59
2023-03-20T00:54:38.315Z,100026.66
2023-03-20T00:55:22.587Z,100019.72
2023-03-20T00:56:05.916Z,100033.59
2023-03-20T00:57:01.839Z,100028.66
2023-03-20T00:57:55.886Z,100028.34
2023-03-20T00:58:38.798Z,100032.47
2023-03-20T00:59:24.959Z,100023.88
2023-03-20T01:00:17.171Z,100032.00
2023-03-20T01:00:59.948Z,100031.63
2023-03-20T01:01:41.912Z,100029.66
2023-03-20T01:02:28.855Z,100047.50
2023-03-20T01:03:17.992Z,100021.72
2023-03-20T01:04:02.555Z,100025.19
2023-03-20T01:04:44.171Z,100004.25
2023-03-20T01:05:27.535Z,99970.56
2023-03-20T01:06:12.652Z,100002.59
2023-03-20T01:06:54.299Z,99988.88
2023-03-20T01:07:36.526Z,100034.09
2023-03-20T01:08:24.432Z,100028.97
2023-03-20T01:09:06.439Z,100029.28
2023-03-20T01:09:48.050Z,100029.97
2023-03-20T01:10:32.256Z,100023.97
2023-03-20T01:11:23.444Z,100004.00
2023-03-20T01:12:07.798Z,100030.91
2023-03-20T01:12:49.581Z,100015.38
2023-03-20T01:13:33.141Z,100024.97
2023-03-20T01:14:15.968Z,100019.34
2023-03-20T01:14:58.829Z,99996.41
2023-03-20T01:15:41.729Z,99961.97
2023-03-20T01:16:26.182Z,100030.94
2023-03-20T01:17:19.042Z,100015.75
2023-03-20T01:18:00.594Z,100004.03
2023-03-20T01:18:42.229Z,100019.72
2023-03-20T01:19:23.905Z,100017.19
2023-03-20T01:20:14.690Z,99998.59
2023-03-20T01:20:56.330Z,100024.34
2023-03-20T01:21:37.976Z,100025.97
2023-03-20T01:22:19.656Z,99998.91
2023-03-20T01:23:01.565Z,100015.41
2023-03-20T01:23:43.941Z,99957.00
2023-03-20T01:24:25.566Z,100024.50
2023-03-20T01:25:07.585Z,100023.66
2023-03-20T01:25:49.957Z,100032.28
2023-03-20T01:26:34.016Z,100022.19
2023-03-20T01:27:18.957Z,100029.63
2023-03-20T01:28:01.189Z,100025.78
2023-03-20T01:28:42.886Z,100003.03
2023-03-20T01:29:27.539Z,100028.28
2023-03-20T01:30:23.412Z,100015.50
2023-03-20T01:31:06.416Z,99966.69
2023-03-20T01:31:50.370Z,100000.19
2023-03-20T01:32:33.335Z,100015.34
2023-03-20T01:33:16.448Z,100015.06
2023-03-20T01:33:59.248Z,99991.78
2023-03-20T01:34:41.074Z,100001.50
2023-03-20T01:35:25.982Z,100021.78
2023-03-20T01:36:11.803Z,100008.56
2023-03-20T01:36:57.075Z,100028.19
2023-03-20T01:37:38.904Z,100026.38
2023-03-20T01:38:24.200Z,100028.19
2023-03-20T01:39:07.775Z,99994.19
2023-03-20T01:39:49.393Z,100034.44
2023-03-20T01:40:35.936Z,99962.81
2023-03-20T01:41:18.131Z,99993.63
2023-03-20T01:42:00.733Z,100030.41
2023-03-20T01:42:43.883Z,100029.91
2023-03-20T01:43:26.328Z,100023.13
2023-03-20T01:44:21.094Z,100028.91
2023-03-20T01:45:16.413Z,100027.25
2023-03-20T01:46:17.396Z,100022.78
2023-03-20T01:47:01.473Z,100028.53
2023-03-20T01:47:43.269Z,100018.63
2023-03-20T01:48:53.485Z,100024.56
2023-03-20T01:50:00.423Z,100028.34
2023-03-20T01:50:42.187Z,99937.97
2023-03-20T01:51:32.838Z,100033.28
2023-03-20T01:52:18.574Z,100016.75
2023-03-20T01:53:19.002Z,100024.50
2023-03-20T01:54:13.065Z,100020.84
2023-03-20T01:55:04.675Z,100009.13
2023-03-20T01:55:48.490Z,100023.28
2023-03-20T01:56:35.205Z,100031.06
2023-03-20T01:57:22.527Z,100013.72
2023-03-20T01:58:09.850Z,100002.00
2023-03-20T01:58:58.503Z,99969.31
2023-03-20T02:00:01.622Z,100017.31
2023-03-20T02:00:48.485Z,100012.69
2023-03-20T02:01:31.966Z,99995.22
2023-03-20T02:02:17.311Z,100025.91
2023-03-20T02:02:59.464Z,100027.91
2023-03-20T02:04:09.076Z,100025.44
2023-03-20T02:05:13.998Z,100033.19
2023-03-20T02:05:57.221Z,100020.97
2023-03-20T02:06:41.811Z,100031.22
2023-03-20T02:07:33.072Z,100024.53
2023-03-20T02:08:28.259Z,100033.50
2023-03-20T02:09:11.843Z,100034.13
2023-03-20T02:09:57.164Z,100018.13
2023-03-20T02:10:50.471Z,100031.56
2023-03-20T02:11:40.164Z,100020.88
2023-03-20T02:12:22.588Z,100029.94
2023-03-20T02:13:05.078Z,100012.63
2023-03-20T02:13:59.212Z,100030.78
2023-03-20T02:14:46.949Z,100032.88
2023-03-20T02:16:01.898Z,100041.66
2023-03-20T02:17:10.617Z,100035.09
2023-03-20T02:17:56.040Z,100038.56
2023-03-20T02:18:40.218Z,100035.09
2023-03-20T02:19:29.466Z,100042.03
2023-03-20T02:20:48.375Z,100045.84
2023-03-20T02:21:45.398Z,100034.94
2023-03-20T02:23:02.459Z,100037.09
2023-03-20T02:24:47.097Z,100002.47
2023-03-20T02:25:57.429Z,100034.44
2023-03-20T02:27:06.191Z,100025.88
2023-03-20T02:27:50.432Z,100023.69
2023-03-20T02:28:43.989Z,100034.25
2023-03-20T02:29:45.387Z,100033.88
2023-03-20T02:30:36.925Z,100029.41
2023-03-20T02:31:56.536Z,100015.72
2023-03-20T02:33:05.943Z,100032.44
2023-03-20T02:34:14.515Z,100027.97
2023-03-20T02:35:11.334Z,100032.88
2023-03-20T02:36:23.563Z,100024.59
2023-03-20T02:37:16.981Z,100026.09
2023-03-20T02:38:27.190Z,100029.38
2023-03-20T02:39:31.707Z,99996.53
2023-03-20T02:40:29.886Z,100030.31
2023-03-20T02:41:14.698Z,100022.06
2023-03-20T02:42:33.773Z,100021.53
2023-03-20T02:43:46.793Z,100018.91
2023-03-20T02:44:51.843Z,100025.53
2023-03-20T02:45:43.111Z,100021.06
2023-03-20T02:46:57.607Z,100028.66
2023-03-20T02:48:02.944Z,100005.38
2023-03-20T02:48:51.124Z,100021.53
2023-03-20T02:49:57.772Z,100027.84
2023-03-20T02:51:05.978Z,99986.88
2023-03-20T02:52:16.339Z,100021.88
2023-03-20T02:53:14.532Z,100028.66
2023-03-20T02:54:27.000Z,100024.19
2023-03-20T02:55:39.870Z,100027.66
2023-03-20T02:56:31.344Z,100027.66
2023-03-20T02:57:34.144Z,100031.31
2023-03-20T02:58:22.642Z,100025.03
2023-03-20T02:59:19.441Z,100013.94
2023-03-20T03:00:14.058Z,100030.13
2023-03-20T03:01:09.228Z,100004.91
2023-03-20T03:01:58.183Z,100027.19
2023-03-20T03:02:48.459Z,100029.00
2023-03-20T03:03:38.475Z,100025.88
2023-03-20T03:04:26.138Z,100018.91
2023-03-20T03:05:15.088Z,100032.31
2023-03-20T03:06:07.027Z,99961.38
2023-03-20T03:06:55.757Z,100019.72
2023-03-20T03:07:42.335Z,100028.84
2023-03-20T03:08:29.140Z,100029.28
2023-03-20T03:09:23.401Z,100017.78
2023-03-20T03:10:14.121Z,100039.53
2023-03-20T03:11:02.406Z,100023.38
2023-03-20T03:11:49.326Z,100027.47
2023-03-20T03:12:41.098Z,100030.44
2023-03-20T03:13:29.474Z,100037.38
2023-03-20T03:14:28.726Z,100041.50
2023-03-20T03:15:35.473Z,100035.38
2023-03-20T03:16:26.685Z,99968.56
2023-03-20T03:17:11.086Z,100037.84
2023-03-20T03:17:53.343Z,100015.22
2023-03-20T03:18:37.023Z,100031.72
2023-03-20T03:19:24.062Z,100017.88
2023-03-20T03:20:16.121Z,100013.59
2023-03-20T03:21:00.554Z,100012.28
2023-03-20T03:21:43.352Z,100033.72
2023-03-20T03:22:25.901Z,100023.38
2023-03-20T03:23:07.950Z,100021.34
2023-03-20T03:23:49.859Z,100012.94
2023-03-20T03:24:41.152Z,100040.69
2023-03-20T03:25:29.236Z,100024.81
2023-03-20T03:26:18.682Z,100009.81
2023-03-20T03:27:04.822Z,100012.47
2023-03-20T03:27:53.385Z,100034.22
2023-03-20T03:29:08.906Z,99989.19
2023-03-20T03:29:55.574Z,100040.97
2023-03-20T03:30:39.827Z,100037.31
2023-03-20T03:31:22.981Z,100037.31
2023-03-20T03:32:07.448Z,100039.13
2023-03-20T03:32:49.066Z,100036.47
2023-03-20T03:33:32.861Z,100042.59
2023-03-20T03:34:18.927Z,100019.34
2023-03-20T03:35:03.548Z,100021.66
2023-03-20T03:35:47.703Z,100039.31
2023-03-20T03:36:44.648Z,100040.97
2023-03-20T03:37:36.752Z,100035.03
2023-03-20T03:38:51.958Z,100041.78
2023-03-20T03:39:39.538Z,100041.59
2023-03-20T03:40:27.598Z,100025.03
2023-03-20T03:41:33.776Z,100040.44
2023-03-20T03:42:33.944Z,100024.13
2023-03-20T03:43:22.817Z,100040.59
2023-03-20T03:45:03.180Z,100033.47
2023-03-20T03:45:52.003Z,100027.44
2023-03-20T03:46:46.390Z,100030.44
2023-03-20T03:47:27.991Z,100046.97
2023-03-20T03:48:26.309Z,99988.25
2023-03-20T03:49:12.919Z,100024.53
2023-03-20T03:50:02.186Z,100035.41
2023-03-20T03:50:49.603Z,100038.53
2023-03-20T03:51:35.837Z,100039.72
2023-03-20T03:52:23.465Z,100036.72
2023-03-20T03:53:11.936Z,100036.72
2023-03-20T03:53:58.921Z,100044.50
2023-03-20T03:54:53.319Z,100045.16
2023-03-20T03:55:58.182Z,100035.72
2023-03-20T03:56:42.724Z,100010.00
2023-03-20T03:57:36.486Z,100018.25
2023-03-20T03:58:36.221Z,100025.19
2023-03-20T03:59:27.231Z,100023.38
2023-03-20T04:00:17.130Z,100030.78
2023-03-20T04:01:01.504Z,100035.38
2023-03-20T04:01:44.413Z,100036.84
2023-03-20T04:02:27.043Z,100028.13
2023-03-20T04:03:12.622Z,100013.59
2023-03-20T04:04:00.961Z,100010.28
2023-03-20T04:04:46.570Z,100034.66
2023-03-20T04:05:31.871Z,100030.84
2023-03-20T04:06:15.736Z,100010.28
2023-03-20T04:06:57.726Z,100036.47
2023-03-20T04:07:39.941Z,100009.91
2023-03-20T04:08:21.514Z,100038.63
2023-03-20T04:09:03.665Z,100037.13
2023-03-20T04:09:45.622Z,100014.78
2023-03-20T04:10:27.394Z,99968.72
2023-03-20T04:11:20.870Z,99983.88
2023-03-20T04:12:03.261Z,100040.44
2023-03-20T04:12:45.935Z,100039.44
2023-03-20T04:13:27.611Z,100038.44
2023-03-20T04:14:09.590Z,100038.25
2023-03-20T04:14:51.228Z,100042.56
2023-03-20T04:15:36.796Z,100040.09
2023-03-20T04:16:21.228Z,100040.25
2023-03-20T04:17:03.048Z,100042.56
2023-03-20T04:17:47.502Z,100047.88
2023-03-20T04:18:30.634Z,100046.03
2023-03-20T04:19:12.857Z,100038.25
2023-03-20T04:19:54.666Z,100043.00
2023-03-20T04:20:36.291Z,100043.84
2023-03-20T04:21:20.500Z,100042.19
2023-03-20T04:22:03.113Z,100036.78
2023-03-20T04:22:46.521Z,100045.84
2023-03-20T04:23:29.748Z,100039.72
2023-03-20T04:24:12.040Z,100045.00
2023-03-20T04:24:54.032Z,100027.72
2023-03-20T04:25:36.009Z,100037.31
2023-03-20T04:26:17.814Z,99913.47
2023-03-20T04:26:59.472Z,100048.50
2023-03-20T04:27:41.076Z,100047.22
2023-03-20T04:28:28.907Z,100046.88
2023-03-20T04:29:29.035Z,100021.81
2023-03-20T04:30:30.415Z,100054.00
2023-03-20T04:31:50.378Z,100055.00
2023-03-20T04:32:41.364Z,100058.00
2023-03-20T04:33:30.753Z,100064.13
2023-03-20T04:34:19.986Z,100059.63
2023-03-20T04:35:28.812Z,100056.81
2023-03-20T04:36:13.986Z,100053.19
2023-03-20T04:36:56.115Z,100067.75
2023-03-20T04:37:44.325Z,100062.81
2023-03-20T04:38:26.955Z,100062.16
2023-03-20T04:39:09.577Z,100068.59
2023-03-20T04:39:51.860Z,100077.38
2023-03-20T04:40:33.819Z,100061.88
2023-03-20T04:41:15.592Z,100074.06
2023-03-20T04:41:58.827Z,100062.81
2023-03-20T04:42:40.889Z,100071.41
2023-03-20T04:43:22.712Z,100074.72
2023-03-20T04:44:04.657Z,99990.41
2023-03-20T04:44:47.678Z,100026.19
2023-03-20T04:45:29.584Z,100071.72
2023-03-20T04:46:11.286Z,100068.59
2023-03-20T04:46:52.960Z,100067.41
2023-03-20T04:47:35.191Z,100065.75
2023-03-20T04:48:16.873Z,100063.28
2023-03-20T04:48:59.296Z,100055.84
2023-03-20T04:49:44.079Z,100060.81
2023-03-20T04:50:25.990Z,100057.41
2023-03-20T04:51:07.819Z,100074.16
2023-03-20T04:51:58.530Z,100047.97
2023-03-20T04:52:51.092Z,100072.53
2023-03-20T04:53:33.553Z,100071.88
2023-03-20T04:54:15.209Z,100056.22
2023-03-20T04:54:57.937Z,100076.03
2023-03-20T04:55:39.579Z,100101.88
2023-03-20T04:56:21.304Z,100079.00
2023-03-20T04:57:04.471Z,100068.94
2023-03-20T04:57:46.961Z,100071.88
2023-03-20T04:58:28.625Z,100082.94
2023-03-20T04:59:10.230Z,100013.66
2023-03-20T04:59:51.811Z,100023.22
2023-03-20T05:00:33.933Z,100067.09
2023-03-20T05:01:15.699Z,100079.66
2023-03-20T05:01:57.361Z,100074.00
2023-03-20T05:02:39.118Z,100077.28
2023-03-20T05:03:23.417Z,100072.81
2023-03-20T05:04:06.429Z,100075.47
2023-03-20T05:04:48.465Z,100066.69
2023-03-20T05:05:30.470Z,100053.19
2023-03-20T05:06:12.119Z,100064.88
2023-03-20T05:06:57.227Z,100062.56
2023-03-20T05:07:44.608Z,100062.03
2023-03-20T05:08:32.341Z,100058.75
2023-03-20T05:09:17.134Z,100068.00
2023-03-20T05:09:59.422Z,100038.44
2023-03-20T05:10:41.600Z,100057.41
2023-03-20T05:11:49.578Z,100057.06
2023-03-20T05:12:49.630Z,100059.97
2023-03-20T05:13:42.808Z,100053.09
2023-03-20T05:14:50.785Z,100040.91
2023-03-20T05:15:43.512Z,100063.78
2023-03-20T05:16:40.228Z,100046.22
2023-03-20T05:17:33.447Z,100068.47
2023-03-20T05:18:39.132Z,100026.88
2023-03-20T05:19:43.006Z,100000.03
2023-03-20T05:20:50.077Z,100028.44
2023-03-20T05:21:54.901Z,100072.66
2023-03-20T05:22:52.279Z,100076.78
2023-03-20T05:24:01.994Z,100075.94
2023-03-20T05:25:07.058Z,100076.94
2023-03-20T05:26:08.977Z,100077.94
2023-03-20T05:27:08.959Z,100081.06
2023-03-20T05:28:23.107Z,100088.38
2023-03-20T05:29:43.382Z,100084.25
2023-03-20T05:30:36.938Z,100082.78
2023-03-20T05:31:46.952Z,100026.03
2023-03-20T05:32:50.833Z,100084.97
2023-03-20T05:33:41.413Z,100081.50
2023-03-20T05:34:29.881Z,100089.63
2023-03-20T05:35:31.723Z,100091.28
2023-03-20T05:36:19.508Z,100028.84
2023-03-20T05:37:11.046Z,100087.63
2023-03-20T05:38:11.313Z,100016.38
2023-03-20T05:39:06.266Z,100087.63
2023-03-20T05:40:20.474Z,100067.63
2023-03-20T05:41:12.176Z,100100.50
2023-03-20T05:42:10.494Z,100095.84
2023-03-20T05:43:03.669Z,100053.94
2023-03-20T05:43:56.271Z,100097.16
2023-03-20T05:45:11.092Z,100067.94
2023-03-20T05:46:16.141Z,100091.19
2023-03-20T05:47:20.865Z,100094.50
2023-03-20T05:48:11.749Z,100095.16
2023-03-20T05:48:56.243Z,100099.63
2023-03-20T05:50:04.412Z,100088.25
2023-03-20T05:51:02.704Z,100098.81
2023-03-20T05:52:07.987Z,100098.97
2023-03-20T05:53:12.831Z,100078.84
2023-03-20T05:54:20.386Z,100083.31
2023-03-20T05:55:20.749Z,100102.09
2023-03-20T05:56:28.644Z,100102.94
2023-03-20T05:57:25.660Z,100081.50
2023-03-20T05:58:07.513Z,100107.22
2023-03-20T05:59:08.041Z,100100.72
2023-03-20T06:00:08.547Z,100074.38
2023-03-20T06:01:16.246Z,100068.53
2023-03-20T06:02:17.216Z,100096.56
2023-03-20T06:03:09.536Z,100089.13
2023-03-20T06:04:10.145Z,100099.31
2023-03-20T06:05:10.281Z,100094.00
2023-03-20T06:06:00.784Z,100045.50
2023-03-20T06:06:42.517Z,100056.66
2023-03-20T06:07:24.395Z,100089.94
2023-03-20T06:08:15.822Z,100080.53
2023-03-20T06:08:57.522Z,100093.72
2023-03-20T06:09:39.173Z,100087.59
2023-03-20T06:10:25.244Z,100087.84
2023-03-20T06:11:07.378Z,100086.69
2023-03-20T06:11:51.365Z,100079.56
2023-03-20T06:12:33.956Z,100069.13
2023-03-20T06:13:16.238Z,100069.94
2023-03-20T06:13:58.994Z,100073.72
2023-03-20T06:14:49.587Z,100059.25
2023-03-20T06:15:31.549Z,100021.16
2023-03-20T06:16:24.103Z,100068.94
2023-03-20T06:17:06.284Z,100079.84
2023-03-20T06:17:48.258Z,100082.69
2023-03-20T06:18:29.882Z,100084.50
2023-03-20T06:19:11.682Z,100077.25
2023-03-20T06:19:53.762Z,100066.19
2023-03-20T06:20:37.039Z,100039.34
2023-03-20T06:21:19.877Z,100026.16
2023-03-20T06:22:01.672Z,100085.84
2023-03-20T06:22:45.613Z,100078.91
2023-03-20T06:23:30.550Z,100058.13
2023-03-20T06:24:12.989Z,100058.28
2023-03-20T06:24:57.080Z,100067.94
2023-03-20T06:25:44.283Z,100071.25
2023-03-20T06:26:26.589Z,100005.38
2023-03-20T06:27:20.577Z,100068.88
2023-03-20T06:28:03.965Z,100071.16
2023-03-20T06:28:45.963Z,100081.41
2023-03-20T06:29:28.945Z,100064.50
2023-03-20T06:30:19.374Z,100069.69
2023-03-20T06:31:01.636Z,100065.03
2023-03-20T06:31:44.582Z,100071.34
2023-03-20T06:32:32.722Z,100085.38
2023-03-20T06:33:16.799Z,100080.25
2023-03-20T06:34:11.632Z,100080.59
2023-03-20T06:34:58.422Z,100083.09
2023-03-20T06:35:40.585Z,100079.31
2023-03-20T06:36:22.446Z,100090.41
2023-03-20T06:37:13.488Z,100094.06
2023-03-20T06:37:55.310Z,100074.63
2023-03-20T06:38:40.790Z,100102.56
2023-03-20T06:39:28.565Z,100096.81
2023-03-20T06:40:11.409Z,100097.84
2023-03-20T06:40:53.058Z,100097.25
2023-03-20T06:41:35.240Z,100128.06
2023-03-20T06:42:20.980Z,100100.72
2023-03-20T06:43:04.799Z,100098.41
2023-03-20T06:43:56.699Z,100086.25
2023-03-20T06:44:43.477Z,100077.25
2023-03-20T06:45:30.242Z,100073.97
2023-03-20T06:46:14.836Z,100093.28
2023-03-20T06:46:56.648Z,100033.94
2023-03-20T06:47:38.395Z,100115.63
2023-03-20T06:48:22.190Z,100118.00
2023-03-20T06:49:04.246Z,100123.47
2023-03-20T06:49:46.238Z,100116.41
2023-03-20T06:50:28.092Z,100125.00
2023-03-20T06:51:11.073Z,100124.38
2023-03-20T06:52:03.353Z,100132.69
2023-03-20T06:52:47.398Z,100134.03
2023-03-20T06:53:55.717Z,100129.72
2023-03-20T06:54:42.092Z,100123.50
2023-03-20T06:55:24.279Z,100120.53
2023-03-20T06:56:06.722Z,100120.91
2023-03-20T06:56:48.326Z,100126.47
2023-03-20T06:57:29.983Z,100094.59
2023-03-20T06:58:11.610Z,100108.03
2023-03-20T06:58:53.322Z,100090.53
2023-03-20T06:59:35.261Z,100095.50
2023-03-20T07:00:17.752Z,100123.72
2023-03-20T07:00:59.645Z,100123.25
2023-03-20T07:01:41.773Z,100111.72
2023-03-20T07:02:24.223Z,100123.25
2023-03-20T07:03:06.448Z,100125.56
2023-03-20T07:03:48.582Z,100059.88
2023-03-20T07:04:34.473Z,100125.97
2023-03-20T07:05:18.280Z,100129.44
2023-03-20T07:06:00.505Z,100121.50
2023-03-20T07:06:42.690Z,100134.75
2023-03-20T07:07:25.082Z,100127.78
2023-03-20T07:08:07.705Z,100097.44
2023-03-20T07:08:49.793Z,100114.28
2023-03-20T07:09:31.763Z,100126.47
2023-03-20T07:10:13.531Z,100131.63
2023-03-20T07:11:01.311Z,100137.75
2023-03-20T07:11:43.662Z,100129.84
2023-03-20T07:12:28.586Z,100122.06
2023-03-20T07:13:14.276Z,100137.91
2023-03-20T07:13:57.073Z,100142.22
2023-03-20T07:14:49.972Z,100136.91
2023-03-20T07:15:34.332Z,100127.84
2023-03-20T07:16:16.341Z,100114.66
2023-03-20T07:16:58.166Z,100142.69
2023-03-20T07:17:39.776Z,100138.22
2023-03-20T07:18:22.316Z,100139.22
2023-03-20T07:19:04.953Z,100135.56
2023-03-20T07:19:50.232Z,100136.03
2023-03-20T07:20:31.927Z,100143.63
2023-03-20T07:21:20.224Z,100140.97
2023-03-20T07:22:04.723Z,100128.44
2023-03-20T07:22:52.631Z,100069.41
2023-03-20T07:23:38.858Z,100118.84
2023-03-20T07:24:20.506Z,100130.84
2023-03-20T07:25:02.333Z,100141.47
2023-03-20T07:25:45.893Z,100125.13
2023-03-20T07:26:30.997Z,100137.31
2023-03-20T07:27:12.858Z,100136.66
2023-03-20T07:27:54.541Z,100137.66
2023-03-20T07:28:38.800Z,100141.16
2023-03-20T07:29:38.280Z,100128.44
2023-03-20T07:30:26.249Z,100140.81
2023-03-20T07:31:22.012Z,100140.63
2023-03-20T07:32:08.295Z,100144.94
2023-03-20T07:32:53.895Z,100142.28
2023-03-20T07:33:36.311Z,100080.09
2023-03-20T07:34:18.944Z,100135.81
2023-03-20T07:35:01.661Z,100126.88
2023-03-20T07:35:43.570Z,100141.13
2023-03-20T07:36:25.493Z,100129.38
2023-03-20T07:37:07.282Z,100135.97
2023-03-20T07:37:50.481Z,100127.19
2023-03-20T07:38:33.107Z,100133.03
2023-03-20T07:39:23.485Z,100137.66
2023-03-20T07:40:28.180Z,100128.63
2023-03-20T07:41:13.960Z,100136.66
2023-03-20T07:42:00.951Z,100126.78
2023-03-20T07:43:08.382Z,100135.66
2023-03-20T07:44:10.397Z,100138.81
2023-03-20T07:45:09.368Z,100141.28
2023-03-20T07:45:51.493Z,100126.78
2023-03-20T07:46:34.573Z,100145.09
2023-03-20T07:47:16.626Z,100141.63
2023-03-20T07:47:58.397Z,100143.28
2023-03-20T07:48:40.329Z,100135.84
2023-03-20T07:49:25.010Z,100140.47
2023-03-20T07:50:08.337Z,100151.88
2023-03-20T07:50:59.149Z,100144.75
2023-03-20T07:51:43.926Z,100146.09
2023-03-20T07:52:25.746Z,100143.63
2023-03-20T07:53:08.285Z,100140.41
2023-03-20T07:53:50.241Z,100142.31
2023-03-20T07:54:31.960Z,100148.94
2023-03-20T07:55:14.054Z,100137.56
2023-03-20T07:55:55.770Z,100148.28
2023-03-20T07:56:37.541Z,100148.09
2023-03-20T07:57:19.233Z,100152.59
2023-03-20T07:58:01.002Z,100138.06
2023-03-20T07:58:42.697Z,100150.25
2023-03-20T07:59:24.389Z,100125.63
2023-03-20T08:00:07.029Z,100147.84
2023-03-20T08:00:53.426Z,100125.38
2023-03-20T08:01:35.195Z,100123.63
2023-03-20T08:02:18.093Z,100132.56
2023-03-20T08:02:59.993Z,100130.00
2023-03-20T08:03:41.926Z,100132.28
2023-03-20T08:04:23.952Z,100135.41
2023-03-20T08:05:06.491Z,100115.25
2023-03-20T08:05:48.228Z,100101.72
2023-03-20T08:06:30.035Z,100134.50
2023-03-20T08:07:15.028Z,100137.63
2023-03-20T08:07:56.852Z,100128.19
2023-03-20T08:08:38.752Z,100124.44
2023-03-20T08:09:20.477Z,100138.47
2023-03-20T08:10:03.788Z,100129.13
2023-03-20T08:10:45.540Z,100132.59
2023-03-20T08:11:27.343Z,100138.19
2023-03-20T08:12:08.922Z,100118.97
2023-03-20T08:12:50.656Z,100122.63
2023-03-20T08:13:32.273Z,100130.31
2023-03-20T08:14:13.970Z,100119.25
2023-03-20T08:14:55.679Z,100068.44
2023-03-20T08:15:37.593Z,100109.91
2023-03-20T08:16:19.672Z,100131.97
2023-03-20T08:17:13.878Z,100133.47
2023-03-20T08:17:58.727Z,100140.59
2023-03-20T08:18:40.372Z,100127.69
2023-03-20T08:19:22.129Z,100134.28
2023-03-20T08:20:04.287Z,100141.25
2023-03-20T08:20:46.604Z,100123.38
2023-03-20T08:21:29.621Z,100131.09
2023-03-20T08:22:11.509Z,100106.53
2023-03-20T08:22:53.245Z,100123.19
2023-03-20T08:23:34.957Z,100141.19
2023-03-20T08:24:16.688Z,100068.91
2023-03-20T08:24:58.294Z,100111.09
2023-03-20T08:25:39.895Z,100079.44
2023-03-20T08:26:21.914Z,100143.13
2023-03-20T08:27:04.067Z,100124.25
2023-03-20T08:27:45.748Z,100119.66
2023-03-20T08:28:45.869Z,100135.16
2023-03-20T08:29:28.158Z,100129.84
2023-03-20T08:30:10.739Z,100138.34
2023-03-20T08:30:52.494Z,100132.09
2023-03-20T08:31:34.104Z,100145.66
2023-03-20T08:32:16.020Z,100003.56
2023-03-20T08:32:59.042Z,100144.19
2023-03-20T08:33:41.037Z,100144.38
2023-03-20T08:34:24.105Z,100137.50
2023-03-20T08:35:06.695Z,100139.41
2023-03-20T08:35:58.675Z,100146.78
2023-03-20T08:36:40.349Z,100131.19
2023-03-20T08:37:22.400Z,100141.91
2023-03-20T08:38:04.224Z,100134.75
2023-03-20T08:38:46.712Z,100140.16
2023-03-20T08:39:28.332Z,100148.56
2023-03-20T08:40:11.649Z,100110.97
2023-03-20T08:40:54.727Z,100146.19
2023-03-20T08:41:41.860Z,100121.28
2023-03-20T08:42:23.535Z,100146.84
2023-03-20T08:43:05.482Z,100067.44
2023-03-20T08:43:47.997Z,100148.50
2023-03-20T08:44:29.677Z,100153.34
2023-03-20T08:45:11.967Z,100074.41
2023-03-20T08:45:54.415Z,100142.81
2023-03-20T08:46:36.371Z,100148.41
2023-03-20T08:47:18.188Z,100156.38
2023-03-20T08:47:59.836Z,100136.41
2023-03-20T08:48:41.640Z,100152.53
2023-03-20T08:49:23.277Z,100118.94
2023-03-20T08:50:05.508Z,100158.66
2023-03-20T08:50:47.112Z,100069.84
2023-03-20T08:51:28.730Z,100150.50
2023-03-20T08:52:10.585Z,100148.31
2023-03-20T08:52:52.331Z,100159.94
2023-03-20T08:53:34.001Z,100139.88
2023-03-20T08:54:18.302Z,100145.97
2023-03-20T08:54:59.926Z,100147.63
2023-03-20T08:55:41.621Z,100146.72
2023-03-20T08:56:23.274Z,100159.00
2023-03-20T08:57:05.292Z,100129.94
2023-03-20T08:57:47.443Z,100148.47
2023-03-20T08:58:29.507Z,100170.78
2023-03-20T08:59:11.554Z,100164.66
2023-03-20T08:59:53.366Z,100166.31
2023-03-20T09:00:35.066Z,100167.13
2023-03-20T09:01:16.801Z,100172.25
2023-03-20T09:01:58.690Z,100169.59
2023-03-20T09:02:40.593Z,100173.25
2023-03-20T09:03:22.374Z,100174.44
2023-03-20T09:04:04.985Z,100176.44
2023-03-20T09:04:46.677Z,100053.81
2023-03-20T09:05:28.406Z,100175.63
2023-03-20T09:06:10.550Z,100146.94